Michigan City, IN

6:57 PM CST on January 31, 2015 (GMT -0600)
Michigan City Municipal | Change Station
CLOSE
Current Station
Airport
Location: Michigan City,
Elevation: 653 ft
Nearby Weather Stations
Active Advisory: Winter Storm Warning

Elev 653 ft 41.70 °N, 86.82 °W | Updated 22 minutes ago

Overcast
Overcast
34 °F
Feels Like 31 °F
N
4
Wind Variable Wind from SW

Today
High -- | Low -- °F
--% Chance of Precip.
Yesterday
High -- | Low -- °F
Precip. -- in
7:00 AM 5:01 PM
Waxing Gibbous, 92% visible
Pressure 30.19 in
Visibility 10.0 miles
Clouds Mostly Cloudy 2800 ft
Overcast 3900 ft
Windchill 31 °F
Dew Point 25 °F
Humidity 70%
Rainfall 0.00 in
Snow Depth Not available.
UV 0 out of 12
Pollen .10 out of 12
Air Quality Not available.
Flu Activity Not available.
METAR KMGC 010035Z AUTO 22003KT 10SM BKN028 OVC039 01/M04 A3019 RMK AO2

More Conditions Fewer Conditions

Pressure 30.19 in
Visibility 10.0 miles
Clouds Mostly Cloudy 2800 ft
Overcast 3900 ft
Windchill 31 °F
Dew Point 25 °F
Humidity 70%
Rainfall 0.00 in
Snow Depth Not available.
UV 0 out of 12
Pollen .10 out of 12
Air Quality Not available.
Flu Activity Not available.
METAR KMGC 010035Z AUTO 22003KT 10SM BKN028 OVC039 01/M04 A3019 RMK AO2

More Conditions Fewer Conditions

10-Day Weather Forecast

Almanac

Astronomy

Jan. 31, 2015 Rise Set
Actual Time
Civil Twilight
Nautical Twilight
Astronomical Twilight
Moon
Length of Visible Light
Length of Day
Tomorrow will be .
, % of the Moon is Illuminated

Today's Extremes

State Highs State Lows

Community

WunderPhotos

Upload Photos

1,792,265 photos uploaded!

WunderBlogs® & News

Nearby

Air Quality

  Air Quality AQ Index Pollutant
Not available.

Snow Depth

Station Depth Elevation

Earthquake Activity

City Distance Mag. Time & Date
Minimum magnitude displayed is 2.5.

Coastal Water Temperatures

Place Temperature

Nearby Weather Stations